createdAt,value
2018-07-11T00:09:01.301Z,16.6
2018-07-11T00:24:01.337Z,16.6
2018-07-11T00:29:01.378Z,16.5
2018-07-11T00:44:01.374Z,16.5
2018-07-11T00:59:01.394Z,16.5
2018-07-11T01:04:01.227Z,16.6
2018-07-11T01:14:01.381Z,16.7
2018-07-11T01:24:01.345Z,16.8
2018-07-11T01:34:01.205Z,16.9
2018-07-11T01:44:01.406Z,17.0
2018-07-11T01:59:01.206Z,17.0
2018-07-11T02:14:01.257Z,17.0
2018-07-11T02:29:01.260Z,17.0
2018-07-11T02:44:01.368Z,16.9
2018-07-11T02:59:01.397Z,16.9
2018-07-11T03:14:01.435Z,16.9
2018-07-11T03:24:01.421Z,16.8
2018-07-11T03:39:01.401Z,16.7
2018-07-11T03:45:01.403Z,16.7
2018-07-11T04:00:01.427Z,16.7
2018-07-11T04:05:01.403Z,16.8
2018-07-11T04:15:01.407Z,16.8
2018-07-11T04:25:01.496Z,16.9
2018-07-11T04:30:01.479Z,16.9
2018-07-11T04:35:01.390Z,17.0
2018-07-11T04:45:01.228Z,17.1
2018-07-11T04:50:01.384Z,17.2
2018-07-11T05:00:01.425Z,17.3
2018-07-11T05:05:01.455Z,17.4
2018-07-11T05:10:01.400Z,17.5
2018-07-11T05:15:01.466Z,17.5
2018-07-11T05:20:01.403Z,17.6
2018-07-11T05:25:01.438Z,17.7
2018-07-11T05:30:01.408Z,17.7
2018-07-11T05:35:01.400Z,17.8
2018-07-11T05:45:01.463Z,17.9
2018-07-11T06:00:01.634Z,17.9
2018-07-11T06:05:01.384Z,18.0
2018-07-11T06:15:01.398Z,18.2
2018-07-11T06:20:01.265Z,18.3
2018-07-11T06:25:01.296Z,18.5
2018-07-11T06:30:01.535Z,18.6
2018-07-11T06:35:01.262Z,18.8
2018-07-11T06:40:01.455Z,19.0
2018-07-11T06:45:01.409Z,19.3
2018-07-11T06:50:01.323Z,19.5
2018-07-11T06:55:01.252Z,19.7
2018-07-11T07:00:01.533Z,19.9
2018-07-11T07:05:01.262Z,20.0
2018-07-11T07:15:01.467Z,20.0
2018-07-11T07:20:01.388Z,20.1
2018-07-11T07:25:01.390Z,20.2
2018-07-11T07:30:01.468Z,20.4
2018-07-11T07:35:01.279Z,20.5
2018-07-11T07:40:01.389Z,20.6
2018-07-11T07:45:01.410Z,20.7
2018-07-11T07:50:01.461Z,20.8
2018-07-11T07:55:01.262Z,21.1
2018-07-11T08:00:01.484Z,21.4
2018-07-11T08:05:01.259Z,21.6
2018-07-11T08:15:01.481Z,21.7
2018-07-11T08:25:01.437Z,21.6
2018-07-11T08:30:01.531Z,21.7
2018-07-11T08:35:01.327Z,21.8
2018-07-11T08:45:01.534Z,21.8
2018-07-11T08:50:01.545Z,21.7
2018-07-11T08:55:01.351Z,21.6
2018-07-11T09:00:01.526Z,21.6
2018-07-11T09:05:01.329Z,21.5
2018-07-11T09:10:01.335Z,21.4
2018-07-11T09:15:01.395Z,21.4
2018-07-11T09:25:01.493Z,21.6
2018-07-11T09:31:01.256Z,21.7
2018-07-11T09:36:01.257Z,21.9
2018-07-11T09:41:01.501Z,22.0
2018-07-11T09:46:01.293Z,22.2
2018-07-11T09:51:01.315Z,22.3
2018-07-11T09:56:01.254Z,22.4
2018-07-11T10:11:01.545Z,22.4
2018-07-11T10:16:01.296Z,22.3
2018-07-11T10:31:01.127Z,22.3
2018-07-11T10:36:01.525Z,22.4
2018-07-11T10:42:01.382Z,22.5
2018-07-11T10:47:01.266Z,22.7
2018-07-11T10:52:01.351Z,22.8
2018-07-11T10:57:01.298Z,23.2
2018-07-11T11:02:01.247Z,23.6
2018-07-11T11:07:01.263Z,24.0
2018-07-11T11:12:01.398Z,24.3
2018-07-11T11:17:01.271Z,24.7
2018-07-11T11:22:01.451Z,24.8
2018-07-11T11:32:01.292Z,24.7
2018-07-11T11:37:01.302Z,24.6
2018-07-11T11:42:01.583Z,24.5
2018-07-11T11:47:01.309Z,24.1
2018-07-11T11:52:01.354Z,24.0
2018-07-11T12:07:01.378Z,24.2
2018-07-11T12:12:01.322Z,24.6
2018-07-11T12:17:01.260Z,24.8
2018-07-11T12:22:01.382Z,24.9
2018-07-11T12:27:01.316Z,25.0
2018-07-11T12:37:01.263Z,25.2
2018-07-11T12:42:01.363Z,25.5
2018-07-11T12:47:01.262Z,25.8
2018-07-11T12:52:01.400Z,26.0
2018-07-11T12:57:01.259Z,26.2
2018-07-11T13:02:01.325Z,26.1
2018-07-11T13:17:06.125Z,26.0
2018-07-11T13:32:01.128Z,26.0
2018-07-11T13:37:01.266Z,25.9
2018-07-11T13:43:01.445Z,26.0
2018-07-11T13:53:01.356Z,25.8
2018-07-11T13:58:01.260Z,25.6
2018-07-11T14:03:01.253Z,25.4
2018-07-11T14:08:01.324Z,25.2
2018-07-11T14:13:01.420Z,25.0
2018-07-11T14:18:01.260Z,24.8
2018-07-11T14:23:01.399Z,24.7
2018-07-11T14:33:01.129Z,24.8
2018-07-11T14:43:01.317Z,24.9
2018-07-11T14:48:01.277Z,25.0
2018-07-11T14:58:01.247Z,25.1
2018-07-11T15:03:01.255Z,25.2
2018-07-11T15:08:01.261Z,25.3
2018-07-11T15:13:01.394Z,25.4
2018-07-11T15:18:01.263Z,25.5
2018-07-11T15:23:01.418Z,25.6
2018-07-11T15:38:01.319Z,25.7
2018-07-11T15:53:01.320Z,25.7
2018-07-11T16:03:01.134Z,25.6
2018-07-11T16:08:01.262Z,25.5
2018-07-11T16:18:01.109Z,25.4
2018-07-11T16:23:01.315Z,25.3
2018-07-11T16:28:01.274Z,25.2
2018-07-11T16:33:01.257Z,25.1
2018-07-11T16:38:01.305Z,25.0
2018-07-11T16:48:01.157Z,24.9
2018-07-11T16:53:01.329Z,24.8
2018-07-11T16:58:01.258Z,24.6
2018-07-11T17:03:01.259Z,24.4
2018-07-11T17:08:01.458Z,24.1
2018-07-11T17:13:01.408Z,24.0
2018-07-11T17:18:01.531Z,23.9
2018-07-11T17:23:01.404Z,23.8
2018-07-11T17:28:01.266Z,23.7
2018-07-11T17:33:01.384Z,23.6
2018-07-11T17:43:01.374Z,23.5
2018-07-11T17:58:01.397Z,23.4
2018-07-11T18:13:01.403Z,23.3
2018-07-11T18:23:01.420Z,23.4
2018-07-11T18:38:01.390Z,23.3
2018-07-11T18:48:01.399Z,23.2
2018-07-11T18:53:01.406Z,23.1
2018-07-11T18:58:01.404Z,23.0
2018-07-11T19:03:01.402Z,22.9
2018-07-11T19:08:01.411Z,22.8
2018-07-11T19:13:01.221Z,22.7
2018-07-11T19:18:01.388Z,22.5
2018-07-11T19:23:01.409Z,22.4
2018-07-11T19:28:01.386Z,22.3
2018-07-11T19:33:01.390Z,22.2
2018-07-11T19:43:01.457Z,22.1
2018-07-11T19:48:01.409Z,22.0
2018-07-11T19:53:01.465Z,21.9
2018-07-11T19:58:01.403Z,21.8
2018-07-11T20:03:01.405Z,21.6
2018-07-11T20:08:01.403Z,21.4
2018-07-11T20:13:01.416Z,21.3
2018-07-11T20:18:01.393Z,21.0
2018-07-11T20:23:01.431Z,20.9
2018-07-11T20:28:01.382Z,20.7
2018-07-11T20:33:01.401Z,20.5
2018-07-11T20:38:01.447Z,20.3
2018-07-11T20:43:01.398Z,20.2
2018-07-11T20:48:01.389Z,19.9
2018-07-11T20:53:01.612Z,19.8
2018-07-11T20:58:01.421Z,19.6
2018-07-11T21:03:01.430Z,19.5
2018-07-11T21:08:01.425Z,19.3
2018-07-11T21:13:01.421Z,19.2
2018-07-11T21:18:01.390Z,19.1
2018-07-11T21:28:01.391Z,19.0
2018-07-11T21:38:01.240Z,18.9
2018-07-11T21:43:01.311Z,18.8
2018-07-11T21:48:01.248Z,18.7
2018-07-11T21:58:01.365Z,18.6
2018-07-11T22:08:01.325Z,18.5
2018-07-11T22:18:01.392Z,18.6
2018-07-11T22:33:01.424Z,18.6
2018-07-11T22:43:01.446Z,18.5
2018-07-11T22:48:01.250Z,18.4
2018-07-11T22:53:01.378Z,18.3
2018-07-11T22:58:01.247Z,18.2
2018-07-11T23:03:01.346Z,18.1
2018-07-11T23:08:01.250Z,18.0
2018-07-11T23:13:01.384Z,17.9
2018-07-11T23:28:01.453Z,17.9
2018-07-11T23:33:01.447Z,18.0
2018-07-11T23:48:01.311Z,18.0
